Time;durP1;ratioP1;P1;durP2;ratioP2;P2;SDS_P1;SDS_P2;PMS_P1;PMS_P2;Temp;Humidity;BMP_temperature;BMP_pressure;BME280_temperature;BME280_humidity;BME280_pressure;Samples;Min_cycle;Max_cycle;Signal;HPM_P1;HPM_P2
2021/01/12 06:32:44;;;;;;;9.60;4.80;;;0.10;99.90;;;;;;6277120;22;20439;-89
2021/01/12 06:35:10;;;;;;;10.53;5.30;;;0.20;99.90;;;;;;6250334;22;20035;-89
2021/01/12 06:37:41;;;;;;;9.07;4.20;;;0.20;99.90;;;;;;6249867;22;19999;-89
2021/01/12 06:40:20;;;;;;;10.17;4.07;;;0.20;99.90;;;;;;6250601;22;20018;-89
2021/01/12 06:42:51;;;;;;;12.60;5.70;;;0.20;99.90;;;;;;6250650;22;20025;-92
2021/01/12 06:45:22;;;;;;;9.37;4.77;;;0.30;99.90;;;;;;6250803;22;20372;-89
2021/01/12 06:47:57;;;;;;;12.10;4.80;;;0.20;99.90;;;;;;6250742;22;20003;-88
2021/01/12 06:50:24;;;;;;;11.37;5.67;;;0.20;99.90;;;;;;6250604;22;20621;-90
2021/01/12 06:52:59;;;;;;;8.40;4.40;;;0.20;99.90;;;;;;6250662;22;20003;-89
2021/01/12 06:55:38;;;;;;;10.87;5.40;;;0.30;99.90;;;;;;6249853;22;20075;-88
2021/01/12 06:58:13;;;;;;;10.60;5.10;;;0.30;99.90;;;;;;6250381;22;20330;-90
2021/01/12 07:01:09;;;;;;;7.23;3.30;;;0.40;99.90;;;;;;6249087;22;20003;-85
2021/01/12 07:03:35;;;;;;;9.50;4.87;;;0.50;99.90;;;;;;6251059;22;20015;-88
2021/01/12 07:06:12;;;;;;;10.50;5.53;;;0.50;99.90;;;;;;6248181;22;20052;-89
2021/01/12 07:08:44;;;;;;;8.73;4.40;;;0.40;99.90;;;;;;6249602;22;20110;-89
2021/01/12 07:11:31;;;;;;;;;;;0.50;99.90;;;;;;6250103;22;20007;-87
2021/01/12 07:14:09;;;;;;;8.37;4.47;;;0.40;99.90;;;;;;6240651;22;19910;-88
2021/01/12 07:19:17;;;;;;;9.00;4.20;;;0.50;99.90;;;;;;6249435;22;20016;-93
2021/01/12 07:21:44;;;;;;;12.02;4.78;;;0.60;99.90;;;;;;6242842;23;19996;-91
2021/01/12 07:24:41;;;;;;;7.57;3.97;;;0.50;99.90;;;;;;6226119;23;20096;-90
2021/01/12 07:50:27;;;;;;;11.70;4.87;;;0.80;99.90;;;;;;6279909;22;20027;-88
2021/01/12 07:52:54;;;;;;;9.33;4.00;;;0.70;99.90;;;;;;6253331;22;20003;-87
2021/01/12 07:55:27;;;;;;;10.80;3.83;;;0.80;99.90;;;;;;6249029;22;20710;-89
2021/01/12 07:57:56;;;;;;;7.00;3.40;;;0.80;99.90;;;;;;6246504;22;20015;-89
2021/01/12 08:00:51;;;;;;;9.33;4.27;;;0.90;99.90;;;;;;6249127;22;20083;-91
2021/01/12 08:03:28;;;;;;;12.63;3.90;;;0.90;99.90;;;;;;6245766;22;20003;-90
2021/01/12 08:09:26;;;;;;;11.33;3.77;;;0.90;99.90;;;;;;6276940;22;20458;-90
2021/01/12 08:12:38;;;;;;;;;;;;;;;;;;;;;
2021/01/12 08:15:29;;;;;;;10.30;4.43;;;1.00;99.90;;;;;;6276336;22;20078;-90
2021/01/12 08:17:55;;;;;;;8.60;4.37;;;1.00;99.90;;;;;;6225613;22;20008;-91
2021/01/12 08:20:27;;;;;;;9.27;3.77;;;1.00;99.90;;;;;;6248014;22;20058;-88
2021/01/12 08:36:30;;;;;;;8.87;4.30;;;1.00;99.90;;;;;;6274624;22;20006;-90
2021/01/12 08:38:58;;;;;;;8.63;3.43;;;1.00;99.90;;;;;;6243927;22;20435;-89
2021/01/12 08:41:26;;;;;;;7.27;3.43;;;1.10;99.90;;;;;;6277405;22;20003;-89
2021/01/12 08:44:00;;;;;;;13.03;4.27;;;1.10;99.90;;;;;;6253383;22;20003;-89
2021/01/12 08:46:30;;;;;;;11.07;3.27;;;1.10;99.90;;;;;;6250516;22;20000;-90
2021/01/12 08:48:56;;;;;;;9.57;3.40;;;1.00;99.90;;;;;;6274881;22;20021;-90
2021/01/12 08:51:24;;;;;;;7.70;3.43;;;1.20;99.90;;;;;;6250221;22;20388;-89
2021/01/12 08:53:55;;;;;;;9.43;4.00;;;1.10;99.90;;;;;;6248830;22;20000;-88
2021/01/12 08:56:23;;;;;;;8.27;2.83;;;1.10;99.90;;;;;;6223098;22;20041;-89
2021/01/12 08:59:09;;;;;;;11.17;3.37;;;1.20;99.90;;;;;;6248317;22;20007;-89
2021/01/12 09:01:44;;;;;;;11.67;4.07;;;1.20;99.90;;;;;;6245070;22;20355;-88
2021/01/12 09:04:10;;;;;;;9.03;3.23;;;1.20;99.90;;;;;;6248109;22;20031;-88
2021/01/12 09:06:38;;;;;;;7.13;2.77;;;1.20;99.90;;;;;;6274922;22;20481;-88
2021/01/12 09:09:05;;;;;;;8.07;3.17;;;1.30;99.90;;;;;;6246706;22;20076;-89
2021/01/12 09:11:45;;;;;;;6.67;2.37;;;1.30;99.90;;;;;;6246279;22;20082;-88
2021/01/12 09:14:11;;;;;;;7.80;3.30;;;1.40;99.90;;;;;;6274634;22;20037;-89
2021/01/12 09:16:42;;;;;;;8.10;1.83;;;1.30;99.90;;;;;;6247118;22;20077;-89
2021/01/12 09:19:17;;;;;;;4.70;2.30;;;1.40;99.90;;;;;;6247763;22;20007;-88
2021/01/12 09:21:54;;;;;;;5.57;2.30;;;1.40;99.90;;;;;;6221788;22;20012;-89
2021/01/12 09:24:24;;;;;;;7.00;3.40;;;1.40;99.90;;;;;;6247679;22;20058;-90
2021/01/12 09:34:40;;;;;;;7.70;3.10;;;1.40;99.90;;;;;;6289184;22;20350;-92
2021/01/12 09:37:19;;;;;;;5.13;2.50;;;1.40;99.90;;;;;;6266452;22;20068;-93
2021/01/12 09:39:53;;;;;;;5.73;2.83;;;1.40;99.90;;;;;;6244325;22;20135;-91
2021/01/12 09:47:54;;;;;;;;;;;;;;;;;;;;;
2021/01/12 09:50:21;;;;;;;5.23;2.23;;;1.50;99.90;;;;;;6104512;23;19995;-92
2021/01/12 09:55:22;;;;;;;6.33;2.83;;;1.50;99.90;;;;;;6251588;22;20016;-94
2021/01/12 09:57:59;;;;;;;5.77;2.50;;;1.50;99.90;;;;;;6235415;22;20043;-95
2021/01/12 10:00:25;;;;;;;8.20;2.87;;;1.50;99.90;;;;;;6236104;22;20010;-94
2021/01/12 10:18:23;;;;;;;9.30;2.80;;;1.40;99.90;;;;;;6247818;22;20004;-96
2021/01/12 10:20:54;;;;;;;5.43;2.47;;;1.40;99.90;;;;;;6245201;22;20020;-96
2021/01/12 10:23:21;;;;;;;4.75;2.47;;;1.40;99.90;;;;;;6250547;22;20038;-96
2021/01/12 10:25:58;;;;;;;7.33;2.87;;;1.40;99.90;;;;;;6274308;22;20030;-96
2021/01/12 10:28:24;;;;;;;4.50;1.53;;;1.30;99.90;;;;;;6269945;22;20075;-95
2021/01/12 10:30:50;;;;;;;5.83;1.50;;;1.30;99.90;;;;;;6274968;22;20004;-96
2021/01/12 10:33:15;;;;;;;5.43;2.03;;;1.30;99.90;;;;;;6273244;22;20018;-95
2021/01/12 10:35:42;;;;;;;4.53;1.63;;;1.30;99.90;;;;;;6271040;22;20039;-96
2021/01/12 10:38:07;;;;;;;5.47;1.90;;;1.30;99.90;;;;;;6275437;22;20045;-94
2021/01/12 10:40:33;;;;;;;5.43;1.77;;;1.30;99.90;;;;;;6271012;22;20164;-96
2021/01/12 10:42:59;;;;;;;7.17;2.47;;;1.30;99.90;;;;;;6269319;22;20007;-96
2021/01/12 10:45:27;;;;;;;5.70;1.80;;;1.30;99.90;;;;;;6273712;22;19995;-95
2021/01/12 10:47:53;;;;;;;4.77;1.90;;;1.30;99.90;;;;;;6273616;22;20000;-96
2021/01/12 11:13:40;;;;;;;3.97;1.53;;;1.30;99.90;;;;;;6284042;22;20011;-95
2021/01/12 11:26:29;;;;;;;4.70;1.33;;;1.30;99.90;;;;;;6316594;22;20063;-95
2021/01/12 11:31:31;;;;;;;4.30;1.20;;;1.40;99.90;;;;;;6271130;22;20064;-95
2021/01/12 12:39:15;;;;;;;5.20;0.70;;;1.30;99.90;;;;;;6269681;23;20023;-96
2021/01/12 12:41:57;;;;;;;2.23;0.70;;;1.30;99.90;;;;;;6270216;23;20052;-94
2021/01/12 12:44:32;;;;;;;2.80;0.60;;;1.30;99.90;;;;;;6216632;23;20008;-96
2021/01/12 12:46:59;;;;;;;2.87;0.70;;;1.30;99.90;;;;;;6214933;23;20040;-95
2021/01/12 12:49:25;;;;;;;1.60;0.60;;;1.30;99.90;;;;;;6214632;23;20208;-96
2021/01/12 12:51:51;;;;;;;1.43;0.53;;;1.30;99.90;;;;;;6213758;23;19985;-94
2021/01/12 12:54:19;;;;;;;1.27;0.50;;;1.30;99.90;;;;;;6213353;23;19984;-95
2021/01/12 12:56:45;;;;;;;1.03;0.33;;;1.30;99.90;;;;;;6214018;23;20037;-96
2021/01/12 12:59:11;;;;;;;1.73;0.50;;;1.30;99.90;;;;;;6213808;23;19985;-96
2021/01/12 13:01:37;;;;;;;0.47;0.23;;;1.30;99.90;;;;;;6212112;23;19988;-95
2021/01/12 13:04:04;;;;;;;1.83;0.43;;;1.40;99.90;;;;;;6209483;23;19988;-95
2021/01/12 13:06:30;;;;;;;1.30;0.40;;;1.30;99.90;;;;;;6210131;23;20294;-95
2021/01/12 13:08:56;;;;;;;1.70;0.43;;;1.30;99.90;;;;;;6214958;23;20037;-93
2021/01/12 13:11:22;;;;;;;1.37;0.40;;;1.30;99.90;;;;;;6214313;23;20008;-96
2021/01/12 13:13:49;;;;;;;1.07;0.40;;;1.30;99.90;;;;;;6214720;23;19985;-95
2021/01/12 13:16:25;;;;;;;1.40;0.40;;;1.40;99.90;;;;;;6214504;23;20064;-95
2021/01/12 13:18:57;;;;;;;0.63;0.23;;;1.40;99.90;;;;;;6215236;23;20012;-94
2021/01/12 13:21:34;;;;;;;0.90;0.30;;;1.40;99.90;;;;;;6214696;23;19993;-95
2021/01/12 13:24:05;;;;;;;2.60;0.27;;;1.50;99.90;;;;;;6215198;23;20001;-94
2021/01/12 13:52:25;;;;;;;3.00;0.30;;;1.40;99.90;;;;;;6241461;23;20064;-93
2021/01/12 13:54:51;;;;;;;1.57;0.37;;;1.40;99.90;;;;;;6215346;23;20003;-91
2021/01/12 13:57:31;;;;;;;2.03;0.30;;;1.40;99.90;;;;;;6213488;23;20017;-92
2021/01/12 13:59:58;;;;;;;0.90;0.30;;;1.40;99.90;;;;;;6214496;23;20104;-94
2021/01/12 14:02:28;;;;;;;2.43;0.30;;;1.50;99.90;;;;;;6213850;23;20052;-94
2021/01/12 14:54:25;;;;;;;1.80;0.47;;;1.40;99.90;;;;;;6271555;22;20000;-94
2021/01/12 14:56:50;;;;;;;0.70;0.30;;;1.40;99.90;;;;;;6243067;22;19996;-93
2021/01/12 14:59:16;;;;;;;0.90;0.40;;;1.40;99.90;;;;;;6232521;23;20035;-87
2021/01/12 16:16:48;;;;;;;1.10;0.40;;;1.80;99.90;;;;;;6291676;22;20014;-95
2021/01/12 16:19:18;;;;;;;2.77;0.50;;;1.80;99.90;;;;;;6271088;22;20096;-93
2021/01/12 16:24:20;;;;;;;0.70;0.30;;;1.80;99.90;;;;;;6281162;22;20020;-94
2021/01/12 16:42:19;;;;;;;1.60;0.50;;;1.90;99.90;;;;;;6205964;23;20021;-93
2021/01/12 16:44:55;;;;;;;1.67;0.60;;;1.90;99.90;;;;;;6207607;23;20043;-93
2021/01/12 16:50:02;;;;;;;1.93;0.50;;;1.80;99.90;;;;;;6270327;22;19996;-94
2021/01/12 16:57:43;;;;;;;1.13;0.50;;;1.80;99.90;;;;;;6267510;22;20034;-92
2021/01/12 17:00:11;;;;;;;1.50;0.63;;;1.90;99.90;;;;;;6257723;22;20011;-89
2021/01/12 17:02:46;;;;;;;0.57;0.30;;;1.90;99.90;;;;;;6255543;22;19991;-94
2021/01/12 17:05:14;;;;;;;1.73;0.50;;;1.90;99.90;;;;;;6299104;22;20019;-93
2021/01/12 17:07:43;;;;;;;1.43;0.60;;;1.80;99.90;;;;;;6298504;22;20015;-95
2021/01/12 17:10:20;;;;;;;3.13;0.50;;;1.80;99.90;;;;;;6234816;22;20054;-93
2021/01/12 17:12:50;;;;;;;2.67;0.60;;;1.90;99.90;;;;;;6227143;23;20040;-91
2021/01/12 17:20:29;;;;;;;1.37;0.40;;;1.80;99.90;;;;;;6281106;22;20016;-92
2021/01/12 22:00:59;;;;;;;;;;;;;;;;;;;;;
2021/01/12 22:03:25;;;;;;;12.83;5.40;;;1.60;99.90;;;;;;6243182;23;19996;-93
2021/01/12 22:05:51;;;;;;;9.30;4.90;;;1.60;99.90;;;;;;6216725;23;19985;-93
2021/01/12 22:08:17;;;;;;;11.27;4.87;;;1.60;99.90;;;;;;6216005;23;20045;-94
2021/01/12 22:10:42;;;;;;;9.60;4.47;;;1.60;99.90;;;;;;6216405;23;19985;-92
2021/01/12 22:13:08;;;;;;;9.93;4.33;;;1.60;99.90;;;;;;6241112;23;20030;-94
2021/01/12 22:18:47;;;;;;;9.75;4.60;;;1.40;99.90;;;;;;6188851;22;19996;-96
2021/01/12 22:21:13;;;;;;;12.10;4.63;;;1.30;99.90;;;;;;6214869;23;20008;-93
2021/01/12 22:23:39;;;;;;;8.27;4.70;;;1.30;99.90;;;;;;6240637;23;20012;-94
2021/01/12 22:26:19;;;;;;;13.03;5.23;;;1.30;99.90;;;;;;6241014;22;20019;-94
2021/01/12 22:28:49;;;;;;;12.57;4.93;;;1.30;99.90;;;;;;6247642;23;19999;-94
2021/01/12 22:31:28;;;;;;;8.70;4.40;;;1.20;99.90;;;;;;6246783;22;20007;-94
2021/01/12 22:49:26;;;;;;;13.87;5.67;;;0.80;99.90;;;;;;6280666;22;20369;-92
2021/01/12 22:51:52;;;;;;;13.70;5.90;;;0.80;99.90;;;;;;6246122;22;20063;-92
2021/01/12 22:54:17;;;;;;;12.00;5.27;;;0.80;99.90;;;;;;6254111;22;20015;-93
2021/01/12 22:56:43;;;;;;;14.80;5.70;;;0.80;99.90;;;;;;6252884;22;20015;-92
2021/01/12 22:59:09;;;;;;;12.30;5.47;;;0.70;99.90;;;;;;6254415;22;20007;-92
2021/01/12 23:01:40;;;;;;;12.37;5.53;;;0.70;99.90;;;;;;6254063;22;20026;-92
2021/01/12 23:04:09;;;;;;;13.40;5.28;;;0.70;99.90;;;;;;6276522;22;20175;-92
2021/01/12 23:07:07;;;;;;;13.70;6.20;;;0.70;99.90;;;;;;6256115;22;20004;-92
2021/01/12 23:13:04;;;;;;;10.73;5.47;;;0.70;99.90;;;;;;6271761;22;20082;-93
2021/01/12 23:15:30;;;;;;;11.70;5.73;;;0.70;99.90;;;;;;6247002;22;20071;-93
2021/01/12 23:17:56;;;;;;;15.47;6.77;;;0.70;99.90;;;;;;6256321;22;20000;-93
2021/01/12 23:20:27;;;;;;;12.07;5.60;;;0.70;99.90;;;;;;6254756;22;20011;-93
2021/01/12 23:22:53;;;;;;;10.27;5.53;;;0.70;99.90;;;;;;6255502;22;20039;-91
2021/01/12 23:25:20;;;;;;;17.23;6.73;;;0.70;99.90;;;;;;6252214;22;20007;-92
2021/01/12 23:28:07;;;;;;;8.93;5.50;;;0.70;99.90;;;;;;6256770;22;20035;-93
2021/01/12 23:31:12;;;;;;;11.17;5.77;;;0.80;99.90;;;;;;6256321;22;20008;-93
2021/01/12 23:33:38;;;;;;;12.47;6.23;;;0.80;99.90;;;;;;6220630;22;20004;-93
2021/01/12 23:36:04;;;;;;;11.30;5.37;;;0.80;99.90;;;;;;6277608;22;20063;-93
2021/01/12 23:38:30;;;;;;;14.43;6.33;;;0.80;99.90;;;;;;6276618;22;19991;-91
2021/01/12 23:41:01;;;;;;;12.33;5.77;;;0.80;99.90;;;;;;6275047;22;20007;-91
2021/01/12 23:43:27;;;;;;;12.90;6.30;;;0.80;99.90;;;;;;6260112;22;20000;-92
2021/01/12 23:45:54;;;;;;;11.33;6.23;;;0.80;99.90;;;;;;6282474;22;20000;-91
2021/01/12 23:48:19;;;;;;;12.17;6.43;;;0.80;99.90;;;;;;6253998;22;20019;-92
2021/01/12 23:50:45;;;;;;;11.30;6.00;;;0.80;99.90;;;;;;6254282;22;20337;-92
2021/01/12 23:53:21;;;;;;;12.17;5.73;;;0.80;99.90;;;;;;6254740;22;20023;-91
2021/01/12 23:55:47;;;;;;;11.63;6.07;;;0.90;99.90;;;;;;6254920;22;20008;-93
2021/01/12 23:58:13;;;;;;;15.80;5.77;;;0.80;99.90;;;;;;6253654;22;20056;-93
